Kitsissut

KL  EN  DA
ASIAQ
Weather Now GREENLAND SURVEY
Updated [WGT/WGST] Temperature [°C] Wind [m/s] Air pressure [hPa] Relative humidity [%] Precipitation [mm]
Present Wind chill Speed Max
27.09 02:00-1,6-5,53,1 ⇓3,6102481n/a
27.09 01:00-1,6-5,53,1 ⇘4,1102474n/a
27.09 00:00-1,3-5,63,6 ⇙4,1102467n/a
26.09 23:00-1,1-5,33,6 ⇙4,1102471n/a
26.09 22:00-1,1-4,93,1 ⇓4,1102480n/a
26.09 21:00-1,8-7,65,7 ⇘7,7102488n/a
26.09 20:00-2,6-9,37,2 ⇘8,8102484n/a
26.09 19:00-2,5-9,27,2 ⇘9,3102486n/a
26.09 18:00-1,8-8,37,2 ⇘8,8102481n/a
26.09 17:00-1,1-6,75,7 ⇓7,7102476n/a
26.09 16:00-1,2-7,16,2 ⇘7,7102479n/a
26.09 15:00-1,2-6,55,1 ⇘6,7102480n/a
26.09 14:00-1,4-7,36,2 ⇘7,7102479n/a
26.09 13:00-1,5-6,54,6 ⇘6,2102578n/a
26.09 12:00-1,9-7,04,6 ⇓6,7102581n/a
26.09 11:00-1,8-5,83,1 ⇓4,6102581n/a
26.09 10:00-2,0-4,92,1 ⇓3,1102582n/a
26.09 09:00-2,00,00,5 ⇘1,0102581n/a
26.09 08:00-2,10,00,5 ⇙2,1102582n/a
26.09 07:00-2,20,00,0 ⇓0,5102590n/a
26.09 06:00-2,10,01,0 ⇙1,0102588n/a
26.09 05:00-2,10,00,5 ⇑1,0102587n/a
26.09 04:00-2,0-4,01,5 ⇑2,6102585n/a
26.09 03:00-2,0-5,52,6 ⇑4,1102585n/a
26.09 02:00-2,0-6,03,1 ⇑5,1102585n/a
Position: (76.73333333,-73.12083333)

[Back]